sensor_id;sensor_type;location;lat;lon;timestamp;temperature;humidity
7307;DHT22;3694;48.732;9.248;2023-04-07T00:00:24;4.80;99.90
7307;DHT22;3694;48.732;9.248;2023-04-07T00:02:50;4.80;99.90
7307;DHT22;3694;48.732;9.248;2023-04-07T00:05:16;4.80;99.90
7307;DHT22;3694;48.732;9.248;2023-04-07T00:07:41;4.80;99.90
7307;DHT22;3694;48.732;9.248;2023-04-07T00:10:07;4.80;99.90
7307;DHT22;3694;48.732;9.248;2023-04-07T00:12:33;4.80;99.90
7307;DHT22;3694;48.732;9.248;2023-04-07T00:14:58;4.80;99.90
7307;DHT22;3694;48.732;9.248;2023-04-07T00:17:24;4.80;99.90
7307;DHT22;3694;48.732;9.248;2023-04-07T00:19:49;4.70;99.90
7307;DHT22;3694;48.732;9.248;2023-04-07T00:22:15;4.80;99.90
7307;DHT22;3694;48.732;9.248;2023-04-07T00:24:40;4.80;99.90
7307;DHT22;3694;48.732;9.248;2023-04-07T00:27:06;4.80;99.90
7307;DHT22;3694;48.732;9.248;2023-04-07T00:29:32;4.70;99.90
7307;DHT22;3694;48.732;9.248;2023-04-07T00:31:57;4.70;99.90
7307;DHT22;3694;48.732;9.248;2023-04-07T00:34:23;4.70;99.90
7307;DHT22;3694;48.732;9.248;2023-04-07T00:36:48;4.70;99.90
7307;DHT22;3694;48.732;9.248;2023-04-07T00:39:17;4.70;99.90
7307;DHT22;3694;48.732;9.248;2023-04-07T00:41:43;4.70;99.90
7307;DHT22;3694;48.732;9.248;2023-04-07T00:44:09;4.70;99.90
7307;DHT22;3694;48.732;9.248;2023-04-07T00:46:35;4.70;99.90
7307;DHT22;3694;48.732;9.248;2023-04-07T00:49:00;4.70;99.90
7307;DHT22;3694;48.732;9.248;2023-04-07T00:51:26;4.60;99.90
7307;DHT22;3694;48.732;9.248;2023-04-07T00:53:51;4.70;99.90
7307;DHT22;3694;48.732;9.248;2023-04-07T00:56:18;4.70;99.90
7307;DHT22;3694;48.732;9.248;2023-04-07T00:58:44;4.70;99.90
7307;DHT22;3694;48.732;9.248;2023-04-07T01:01:21;4.70;99.90
7307;DHT22;3694;48.732;9.248;2023-04-07T01:04:00;4.70;99.90
7307;DHT22;3694;48.732;9.248;2023-04-07T01:06:34;4.70;99.90
7307;DHT22;3694;48.732;9.248;2023-04-07T01:09:04;4.70;99.90
7307;DHT22;3694;48.732;9.248;2023-04-07T01:14:17;4.70;99.90
7307;DHT22;3694;48.732;9.248;2023-04-07T01:16:51;4.70;99.90
7307;DHT22;3694;48.732;9.248;2023-04-07T01:21:55;4.70;99.90
7307;DHT22;3694;48.732;9.248;2023-04-07T01:24:45;4.70;99.90
7307;DHT22;3694;48.732;9.248;2023-04-07T01:27:21;4.70;99.90
7307;DHT22;3694;48.732;9.248;2023-04-07T01:29:51;4.80;99.90
7307;DHT22;3694;48.732;9.248;2023-04-07T01:32:17;4.70;99.90
7307;DHT22;3694;48.732;9.248;2023-04-07T01:34:47;4.70;99.90
7307;DHT22;3694;48.732;9.248;2023-04-07T01:37:14;4.70;99.90
7307;DHT22;3694;48.732;9.248;2023-04-07T01:39:40;4.70;99.90
7307;DHT22;3694;48.732;9.248;2023-04-07T01:42:06;4.70;99.90
7307;DHT22;3694;48.732;9.248;2023-04-07T01:44:32;4.60;99.90
7307;DHT22;3694;48.732;9.248;2023-04-07T01:46:59;4.60;99.90
7307;DHT22;3694;48.732;9.248;2023-04-07T01:49:25;4.70;99.90
7307;DHT22;3694;48.732;9.248;2023-04-07T01:51:52;4.60;99.90
7307;DHT22;3694;48.732;9.248;2023-04-07T01:54:19;4.60;99.90
7307;DHT22;3694;48.732;9.248;2023-04-07T01:56:45;4.60;99.90
7307;DHT22;3694;48.732;9.248;2023-04-07T01:59:11;4.60;99.90
7307;DHT22;3694;48.732;9.248;2023-04-07T02:01:37;4.60;99.90
7307;DHT22;3694;48.732;9.248;2023-04-07T02:04:28;4.60;99.90
7307;DHT22;3694;48.732;9.248;2023-04-07T02:06:59;4.60;99.90
7307;DHT22;3694;48.732;9.248;2023-04-07T02:09:29;4.60;99.90
7307;DHT22;3694;48.732;9.248;2023-04-07T02:11:57;4.60;99.90
7307;DHT22;3694;48.732;9.248;2023-04-07T02:14:24;4.60;99.90
7307;DHT22;3694;48.732;9.248;2023-04-07T02:16:51;4.60;99.90
7307;DHT22;3694;48.732;9.248;2023-04-07T02:19:18;4.60;99.90
7307;DHT22;3694;48.732;9.248;2023-04-07T02:21:44;4.70;99.90
7307;DHT22;3694;48.732;9.248;2023-04-07T02:24:10;4.70;99.90
7307;DHT22;3694;48.732;9.248;2023-04-07T02:26:36;4.70;99.90
7307;DHT22;3694;48.732;9.248;2023-04-07T02:29:04;4.70;99.90
7307;DHT22;3694;48.732;9.248;2023-04-07T02:31:30;4.80;99.90
7307;DHT22;3694;48.732;9.248;2023-04-07T02:33:56;4.80;99.90
7307;DHT22;3694;48.732;9.248;2023-04-07T02:36:21;4.80;99.90
7307;DHT22;3694;48.732;9.248;2023-04-07T02:38:47;4.80;99.90
7307;DHT22;3694;48.732;9.248;2023-04-07T02:41:12;4.80;99.90
7307;DHT22;3694;48.732;9.248;2023-04-07T02:43:38;4.80;99.90
7307;DHT22;3694;48.732;9.248;2023-04-07T02:46:03;4.80;99.90
7307;DHT22;3694;48.732;9.248;2023-04-07T02:48:29;4.80;99.90
7307;DHT22;3694;48.732;9.248;2023-04-07T02:50:54;4.90;99.90
7307;DHT22;3694;48.732;9.248;2023-04-07T02:53:20;4.90;99.90
7307;DHT22;3694;48.732;9.248;2023-04-07T02:55:46;4.90;99.90
7307;DHT22;3694;48.732;9.248;2023-04-07T02:58:11;4.90;99.90
7307;DHT22;3694;48.732;9.248;2023-04-07T03:00:37;4.90;99.90
7307;DHT22;3694;48.732;9.248;2023-04-07T03:03:02;4.90;99.90
7307;DHT22;3694;48.732;9.248;2023-04-07T03:05:28;4.90;99.90
7307;DHT22;3694;48.732;9.248;2023-04-07T03:07:53;4.90;99.90
7307;DHT22;3694;48.732;9.248;2023-04-07T03:10:19;4.90;99.90
7307;DHT22;3694;48.732;9.248;2023-04-07T03:12:44;4.90;99.90
7307;DHT22;3694;48.732;9.248;2023-04-07T03:15:10;4.90;99.90
7307;DHT22;3694;48.732;9.248;2023-04-07T03:17:36;4.80;99.90
7307;DHT22;3694;48.732;9.248;2023-04-07T03:20:01;4.80;99.90
7307;DHT22;3694;48.732;9.248;2023-04-07T03:22:27;4.90;99.90
7307;DHT22;3694;48.732;9.248;2023-04-07T03:24:52;4.80;99.90
7307;DHT22;3694;48.732;9.248;2023-04-07T03:27:18;4.80;99.90
7307;DHT22;3694;48.732;9.248;2023-04-07T03:29:44;4.90;99.90
7307;DHT22;3694;48.732;9.248;2023-04-07T03:32:11;4.80;99.90
7307;DHT22;3694;48.732;9.248;2023-04-07T03:34:36;4.70;99.90
7307;DHT22;3694;48.732;9.248;2023-04-07T03:37:02;4.80;99.90
7307;DHT22;3694;48.732;9.248;2023-04-07T03:39:27;4.80;99.90
7307;DHT22;3694;48.732;9.248;2023-04-07T03:41:53;4.80;99.90
7307;DHT22;3694;48.732;9.248;2023-04-07T03:44:18;4.80;99.90
7307;DHT22;3694;48.732;9.248;2023-04-07T03:46:44;4.80;99.90
7307;DHT22;3694;48.732;9.248;2023-04-07T03:49:10;4.80;99.90
7307;DHT22;3694;48.732;9.248;2023-04-07T03:51:36;4.80;99.90
7307;DHT22;3694;48.732;9.248;2023-04-07T03:54:01;4.80;99.90
7307;DHT22;3694;48.732;9.248;2023-04-07T03:56:27;4.80;99.90
7307;DHT22;3694;48.732;9.248;2023-04-07T03:58:53;4.80;99.90
7307;DHT22;3694;48.732;9.248;2023-04-07T04:01:18;4.80;99.90
7307;DHT22;3694;48.732;9.248;2023-04-07T04:03:44;4.80;99.90
7307;DHT22;3694;48.732;9.248;2023-04-07T04:06:09;4.90;99.90
7307;DHT22;3694;48.732;9.248;2023-04-07T04:08:35;4.90;99.90
7307;DHT22;3694;48.732;9.248;2023-04-07T04:11:00;4.90;99.90
7307;DHT22;3694;48.732;9.248;2023-04-07T04:13:26;4.90;99.90
7307;DHT22;3694;48.732;9.248;2023-04-07T04:15:51;4.90;99.90
7307;DHT22;3694;48.732;9.248;2023-04-07T04:18:17;4.90;99.90
7307;DHT22;3694;48.732;9.248;2023-04-07T04:20:42;4.90;99.90
7307;DHT22;3694;48.732;9.248;2023-04-07T04:23:08;4.90;99.90
7307;DHT22;3694;48.732;9.248;2023-04-07T04:25:34;4.90;99.90
7307;DHT22;3694;48.732;9.248;2023-04-07T04:27:59;4.90;99.90
7307;DHT22;3694;48.732;9.248;2023-04-07T04:30:25;4.90;99.90
7307;DHT22;3694;48.732;9.248;2023-04-07T04:32:50;4.90;99.90
7307;DHT22;3694;48.732;9.248;2023-04-07T04:35:16;4.90;99.90
7307;DHT22;3694;48.732;9.248;2023-04-07T04:37:41;4.90;99.90
7307;DHT22;3694;48.732;9.248;2023-04-07T04:40:07;5.00;99.90
7307;DHT22;3694;48.732;9.248;2023-04-07T04:42:34;4.90;99.90
7307;DHT22;3694;48.732;9.248;2023-04-07T04:45:00;4.90;99.90
7307;DHT22;3694;48.732;9.248;2023-04-07T04:47:25;4.90;99.90
7307;DHT22;3694;48.732;9.248;2023-04-07T04:49:51;4.80;99.90
7307;DHT22;3694;48.732;9.248;2023-04-07T04:52:16;4.80;99.90
7307;DHT22;3694;48.732;9.248;2023-04-07T04:54:42;4.80;99.90
7307;DHT22;3694;48.732;9.248;2023-04-07T04:57:07;4.80;99.90
7307;DHT22;3694;48.732;9.248;2023-04-07T04:59:33;4.80;99.90
7307;DHT22;3694;48.732;9.248;2023-04-07T05:01:58;4.70;99.90
7307;DHT22;3694;48.732;9.248;2023-04-07T05:04:24;4.70;99.90
7307;DHT22;3694;48.732;9.248;2023-04-07T05:06:50;4.70;99.90
7307;DHT22;3694;48.732;9.248;2023-04-07T05:09:15;4.70;99.90
7307;DHT22;3694;48.732;9.248;2023-04-07T05:11:42;4.70;99.90
7307;DHT22;3694;48.732;9.248;2023-04-07T05:14:07;4.70;99.90
7307;DHT22;3694;48.732;9.248;2023-04-07T05:16:34;4.70;99.90
7307;DHT22;3694;48.732;9.248;2023-04-07T05:19:00;4.70;99.90
7307;DHT22;3694;48.732;9.248;2023-04-07T05:21:25;4.70;99.90
7307;DHT22;3694;48.732;9.248;2023-04-07T05:23:51;4.80;99.90
7307;DHT22;3694;48.732;9.248;2023-04-07T05:26:17;4.80;99.90
7307;DHT22;3694;48.732;9.248;2023-04-07T05:28:42;4.90;99.90
7307;DHT22;3694;48.732;9.248;2023-04-07T05:31:08;4.80;99.90
7307;DHT22;3694;48.732;9.248;2023-04-07T05:33:33;4.80;99.90
7307;DHT22;3694;48.732;9.248;2023-04-07T05:35:59;4.90;99.90
7307;DHT22;3694;48.732;9.248;2023-04-07T05:38:25;4.90;99.90
7307;DHT22;3694;48.732;9.248;2023-04-07T05:40:50;5.00;99.90
7307;DHT22;3694;48.732;9.248;2023-04-07T05:43:16;5.10;99.90
7307;DHT22;3694;48.732;9.248;2023-04-07T05:45:41;5.20;99.90
7307;DHT22;3694;48.732;9.248;2023-04-07T05:48:07;5.20;99.90
7307;DHT22;3694;48.732;9.248;2023-04-07T05:50:32;5.30;99.90
7307;DHT22;3694;48.732;9.248;2023-04-07T05:52:58;5.40;99.90
7307;DHT22;3694;48.732;9.248;2023-04-07T05:55:23;5.50;99.90
7307;DHT22;3694;48.732;9.248;2023-04-07T05:57:49;5.60;99.90
7307;DHT22;3694;48.732;9.248;2023-04-07T06:00:14;5.60;99.90
7307;DHT22;3694;48.732;9.248;2023-04-07T06:02:40;5.60;99.90
7307;DHT22;3694;48.732;9.248;2023-04-07T06:05:06;5.70;99.90
7307;DHT22;3694;48.732;9.248;2023-04-07T06:07:32;5.70;99.90
7307;DHT22;3694;48.732;9.248;2023-04-07T06:09:57;5.80;99.90
7307;DHT22;3694;48.732;9.248;2023-04-07T06:12:23;5.80;99.90
7307;DHT22;3694;48.732;9.248;2023-04-07T06:14:53;5.90;99.90
7307;DHT22;3694;48.732;9.248;2023-04-07T06:17:19;5.90;99.90
7307;DHT22;3694;48.732;9.248;2023-04-07T06:19:45;6.00;99.90
7307;DHT22;3694;48.732;9.248;2023-04-07T06:22:10;6.10;99.90
7307;DHT22;3694;48.732;9.248;2023-04-07T06:24:36;6.10;99.90
7307;DHT22;3694;48.732;9.248;2023-04-07T06:27:02;6.20;99.90
7307;DHT22;3694;48.732;9.248;2023-04-07T06:29:28;6.20;99.90
7307;DHT22;3694;48.732;9.248;2023-04-07T06:31:54;6.30;99.90
7307;DHT22;3694;48.732;9.248;2023-04-07T06:34:20;6.40;99.90
7307;DHT22;3694;48.732;9.248;2023-04-07T06:36:46;6.40;99.90
7307;DHT22;3694;48.732;9.248;2023-04-07T06:39:11;6.50;99.90
7307;DHT22;3694;48.732;9.248;2023-04-07T06:41:37;6.50;99.90
7307;DHT22;3694;48.732;9.248;2023-04-07T06:44:03;6.60;99.90
7307;DHT22;3694;48.732;9.248;2023-04-07T06:46:29;6.60;99.90
7307;DHT22;3694;48.732;9.248;2023-04-07T06:48:55;6.80;99.90
7307;DHT22;3694;48.732;9.248;2023-04-07T06:51:20;6.90;99.90
7307;DHT22;3694;48.732;9.248;2023-04-07T06:53:46;7.00;99.90
7307;DHT22;3694;48.732;9.248;2023-04-07T06:56:13;7.00;99.90
7307;DHT22;3694;48.732;9.248;2023-04-07T06:58:39;7.20;99.90
7307;DHT22;3694;48.732;9.248;2023-04-07T07:01:04;7.40;99.90
7307;DHT22;3694;48.732;9.248;2023-04-07T07:03:31;7.50;99.90
7307;DHT22;3694;48.732;9.248;2023-04-07T07:05:58;7.60;99.90
7307;DHT22;3694;48.732;9.248;2023-04-07T07:08:27;7.70;99.90
7307;DHT22;3694;48.732;9.248;2023-04-07T07:10:53;7.90;99.90
7307;DHT22;3694;48.732;9.248;2023-04-07T07:13:21;7.90;99.90
7307;DHT22;3694;48.732;9.248;2023-04-07T07:15:50;8.00;99.90
7307;DHT22;3694;48.732;9.248;2023-04-07T07:18:16;8.10;99.90
7307;DHT22;3694;48.732;9.248;2023-04-07T07:20:42;8.20;99.90
7307;DHT22;3694;48.732;9.248;2023-04-07T07:23:07;8.30;99.90
7307;DHT22;3694;48.732;9.248;2023-04-07T07:25:33;8.50;99.90
7307;DHT22;3694;48.732;9.248;2023-04-07T07:27:59;8.70;99.90
7307;DHT22;3694;48.732;9.248;2023-04-07T07:30:24;9.00;99.90
7307;DHT22;3694;48.732;9.248;2023-04-07T07:32:50;9.20;98.90
7307;DHT22;3694;48.732;9.248;2023-04-07T07:35:19;9.30;98.20
7307;DHT22;3694;48.732;9.248;2023-04-07T07:37:44;9.60;98.40
7307;DHT22;3694;48.732;9.248;2023-04-07T07:40:10;9.70;98.20
7307;DHT22;3694;48.732;9.248;2023-04-07T07:42:36;9.90;98.10
7307;DHT22;3694;48.732;9.248;2023-04-07T07:45:02;10.20;96.90
7307;DHT22;3694;48.732;9.248;2023-04-07T07:47:27;10.10;96.60
7307;DHT22;3694;48.732;9.248;2023-04-07T07:49:53;10.40;96.40
7307;DHT22;3694;48.732;9.248;2023-04-07T07:52:19;10.40;95.60
7307;DHT22;3694;48.732;9.248;2023-04-07T07:54:45;10.70;96.40
7307;DHT22;3694;48.732;9.248;2023-04-07T07:57:11;11.00;95.70
7307;DHT22;3694;48.732;9.248;2023-04-07T07:59:37;11.10;95.10
7307;DHT22;3694;48.732;9.248;2023-04-07T08:02:02;11.30;95.60
7307;DHT22;3694;48.732;9.248;2023-04-07T08:04:28;11.70;95.50
7307;DHT22;3694;48.732;9.248;2023-04-07T08:06:54;12.00;94.70
7307;DHT22;3694;48.732;9.248;2023-04-07T08:09:20;12.40;93.70
7307;DHT22;3694;48.732;9.248;2023-04-07T08:11:45;12.40;93.00
7307;DHT22;3694;48.732;9.248;2023-04-07T08:14:13;12.60;93.10
7307;DHT22;3694;48.732;9.248;2023-04-07T08:16:39;13.30;92.50
7307;DHT22;3694;48.732;9.248;2023-04-07T08:19:04;14.20;92.00
7307;DHT22;3694;48.732;9.248;2023-04-07T08:21:30;14.60;89.50
7307;DHT22;3694;48.732;9.248;2023-04-07T08:23:56;14.60;87.70
7307;DHT22;3694;48.732;9.248;2023-04-07T08:26:21;14.30;86.60
7307;DHT22;3694;48.732;9.248;2023-04-07T08:28:48;14.10;88.60
7307;DHT22;3694;48.732;9.248;2023-04-07T08:31:16;14.30;88.20
7307;DHT22;3694;48.732;9.248;2023-04-07T08:33:41;14.60;89.70
7307;DHT22;3694;48.732;9.248;2023-04-07T08:36:07;14.70;88.10
7307;DHT22;3694;48.732;9.248;2023-04-07T08:38:32;15.10;86.70
7307;DHT22;3694;48.732;9.248;2023-04-07T08:41:03;15.40;85.10
7307;DHT22;3694;48.732;9.248;2023-04-07T08:43:34;15.70;81.90
7307;DHT22;3694;48.732;9.248;2023-04-07T08:46:01;16.00;81.90
7307;DHT22;3694;48.732;9.248;2023-04-07T08:48:28;15.50;79.90
7307;DHT22;3694;48.732;9.248;2023-04-07T08:51:02;15.60;81.00
7307;DHT22;3694;48.732;9.248;2023-04-07T08:53:49;16.30;82.40
7307;DHT22;3694;48.732;9.248;2023-04-07T08:56:16;16.60;79.10
7307;DHT22;3694;48.732;9.248;2023-04-07T08:58:43;16.60;83.10
7307;DHT22;3694;48.732;9.248;2023-04-07T09:01:08;16.60;79.70
7307;DHT22;3694;48.732;9.248;2023-04-07T09:03:35;16.50;78.20
7307;DHT22;3694;48.732;9.248;2023-04-07T09:06:00;17.20;76.90
7307;DHT22;3694;48.732;9.248;2023-04-07T09:08:26;17.20;75.80
7307;DHT22;3694;48.732;9.248;2023-04-07T09:10:53;17.50;76.20
7307;DHT22;3694;48.732;9.248;2023-04-07T09:13:18;17.00;74.10
7307;DHT22;3694;48.732;9.248;2023-04-07T09:15:44;15.80;75.80
7307;DHT22;3694;48.732;9.248;2023-04-07T09:18:10;15.40;77.30
7307;DHT22;3694;48.732;9.248;2023-04-07T09:23:31;15.40;77.80
7307;DHT22;3694;48.732;9.248;2023-04-07T09:25:58;15.60;78.50
7307;DHT22;3694;48.732;9.248;2023-04-07T09:28:25;15.00;78.50
7307;DHT22;3694;48.732;9.248;2023-04-07T09:31:02;14.70;76.70
7307;DHT22;3694;48.732;9.248;2023-04-07T09:33:28;14.60;79.00
7307;DHT22;3694;48.732;9.248;2023-04-07T09:35:54;14.60;77.30
7307;DHT22;3694;48.732;9.248;2023-04-07T09:38:20;15.00;79.90
7307;DHT22;3694;48.732;9.248;2023-04-07T09:40:45;14.90;78.70
7307;DHT22;3694;48.732;9.248;2023-04-07T09:43:16;14.70;78.50
7307;DHT22;3694;48.732;9.248;2023-04-07T09:45:43;14.90;81.20
7307;DHT22;3694;48.732;9.248;2023-04-07T09:48:18;14.80;78.60
7307;DHT22;3694;48.732;9.248;2023-04-07T09:50:44;14.70;77.60
7307;DHT22;3694;48.732;9.248;2023-04-07T09:53:17;14.90;78.30
7307;DHT22;3694;48.732;9.248;2023-04-07T09:55:44;14.60;78.60
7307;DHT22;3694;48.732;9.248;2023-04-07T09:58:13;14.60;79.10
7307;DHT22;3694;48.732;9.248;2023-04-07T10:00:41;14.30;80.60
7307;DHT22;3694;48.732;9.248;2023-04-07T10:03:06;13.90;79.20
7307;DHT22;3694;48.732;9.248;2023-04-07T10:05:33;13.70;79.60
7307;DHT22;3694;48.732;9.248;2023-04-07T10:08:00;14.00;83.30
7307;DHT22;3694;48.732;9.248;2023-04-07T10:10:27;14.00;81.30
7307;DHT22;3694;48.732;9.248;2023-04-07T10:12:53;14.10;81.30
7307;DHT22;3694;48.732;9.248;2023-04-07T10:15:20;14.00;79.90
7307;DHT22;3694;48.732;9.248;2023-04-07T10:17:47;14.10;79.00
7307;DHT22;3694;48.732;9.248;2023-04-07T10:20:16;14.10;81.10
7307;DHT22;3694;48.732;9.248;2023-04-07T10:22:43;14.00;81.80
7307;DHT22;3694;48.732;9.248;2023-04-07T10:25:11;13.80;83.00
7307;DHT22;3694;48.732;9.248;2023-04-07T10:27:48;13.50;81.90
7307;DHT22;3694;48.732;9.248;2023-04-07T10:30:26;13.10;82.40
7307;DHT22;3694;48.732;9.248;2023-04-07T10:32:53;12.90;82.70
7307;DHT22;3694;48.732;9.248;2023-04-07T10:35:20;13.10;83.30
7307;DHT22;3694;48.732;9.248;2023-04-07T10:40:30;13.10;86.50
7307;DHT22;3694;48.732;9.248;2023-04-07T10:42:56;12.90;83.10
7307;DHT22;3694;48.732;9.248;2023-04-07T10:48:16;12.60;84.80
7307;DHT22;3694;48.732;9.248;2023-04-07T10:50:41;12.50;84.50
7307;DHT22;3694;48.732;9.248;2023-04-07T10:53:14;12.80;83.30
7307;DHT22;3694;48.732;9.248;2023-04-07T10:55:44;12.90;83.80
7307;DHT22;3694;48.732;9.248;2023-04-07T11:01:15;13.10;85.90
7307;DHT22;3694;48.732;9.248;2023-04-07T11:03:30;13.00;80.90
7307;DHT22;3694;48.732;9.248;2023-04-07T11:06:13;12.80;82.20
7307;DHT22;3694;48.732;9.248;2023-04-07T11:11:06;12.80;83.40
7307;DHT22;3694;48.732;9.248;2023-04-07T11:13:45;12.90;81.70
7307;DHT22;3694;48.732;9.248;2023-04-07T11:16:12;13.30;82.60
7307;DHT22;3694;48.732;9.248;2023-04-07T11:18:39;13.70;79.60
7307;DHT22;3694;48.732;9.248;2023-04-07T11:21:06;13.90;79.60
7307;DHT22;3694;48.732;9.248;2023-04-07T11:23:43;14.20;83.30
7307;DHT22;3694;48.732;9.248;2023-04-07T11:26:11;14.20;80.70
7307;DHT22;3694;48.732;9.248;2023-04-07T11:28:53;14.40;79.10
7307;DHT22;3694;48.732;9.248;2023-04-07T11:31:27;14.00;79.90
7307;DHT22;3694;48.732;9.248;2023-04-07T11:33:55;14.30;82.70
7307;DHT22;3694;48.732;9.248;2023-04-07T11:36:32;14.40;81.80
7307;DHT22;3694;48.732;9.248;2023-04-07T11:38:59;14.40;81.20
7307;DHT22;3694;48.732;9.248;2023-04-07T11:41:27;14.60;80.10
7307;DHT22;3694;48.732;9.248;2023-04-07T11:44:09;14.30;80.30
7307;DHT22;3694;48.732;9.248;2023-04-07T11:46:58;14.40;79.70
7307;DHT22;3694;48.732;9.248;2023-04-07T11:49:26;14.30;78.60
7307;DHT22;3694;48.732;9.248;2023-04-07T11:52:04;13.80;79.30
7307;DHT22;3694;48.732;9.248;2023-04-07T11:54:43;13.70;81.00
7307;DHT22;3694;48.732;9.248;2023-04-07T11:57:08;13.50;79.10
7307;DHT22;3694;48.732;9.248;2023-04-07T11:59:36;13.40;77.70
7307;DHT22;3694;48.732;9.248;2023-04-07T12:02:02;13.40;77.40
7307;DHT22;3694;48.732;9.248;2023-04-07T12:04:28;13.10;77.20
7307;DHT22;3694;48.732;9.248;2023-04-07T12:07:09;12.70;76.70
7307;DHT22;3694;48.732;9.248;2023-04-07T12:09:35;12.50;77.60
7307;DHT22;3694;48.732;9.248;2023-04-07T12:12:02;12.10;76.60
7307;DHT22;3694;48.732;9.248;2023-04-07T12:14:30;11.90;76.80
7307;DHT22;3694;48.732;9.248;2023-04-07T12:16:55;11.70;78.20
7307;DHT22;3694;48.732;9.248;2023-04-07T12:19:25;11.50;83.20
7307;DHT22;3694;48.732;9.248;2023-04-07T12:21:52;11.30;86.60
7307;DHT22;3694;48.732;9.248;2023-04-07T12:24:18;10.90;86.20
7307;DHT22;3694;48.732;9.248;2023-04-07T12:26:43;10.40;90.30
7307;DHT22;3694;48.732;9.248;2023-04-07T12:29:09;9.60;94.50
7307;DHT22;3694;48.732;9.248;2023-04-07T12:31:35;8.90;97.30
7307;DHT22;3694;48.732;9.248;2023-04-07T12:34:01;8.30;99.90
7307;DHT22;3694;48.732;9.248;2023-04-07T12:36:27;7.80;99.90
7307;DHT22;3694;48.732;9.248;2023-04-07T12:38:54;7.70;99.90
7307;DHT22;3694;48.732;9.248;2023-04-07T12:41:19;7.60;99.90
7307;DHT22;3694;48.732;9.248;2023-04-07T12:43:45;7.60;99.90
7307;DHT22;3694;48.732;9.248;2023-04-07T12:46:11;7.50;99.90
7307;DHT22;3694;48.732;9.248;2023-04-07T12:48:36;7.50;99.90
7307;DHT22;3694;48.732;9.248;2023-04-07T12:51:02;7.50;99.90
7307;DHT22;3694;48.732;9.248;2023-04-07T12:53:27;7.50;99.90
7307;DHT22;3694;48.732;9.248;2023-04-07T12:55:53;7.50;99.90
7307;DHT22;3694;48.732;9.248;2023-04-07T12:58:19;7.60;99.90
7307;DHT22;3694;48.732;9.248;2023-04-07T13:00:45;7.60;99.90
7307;DHT22;3694;48.732;9.248;2023-04-07T13:03:13;7.70;99.90
7307;DHT22;3694;48.732;9.248;2023-04-07T13:05:38;7.90;99.90
7307;DHT22;3694;48.732;9.248;2023-04-07T13:08:04;8.10;99.90
7307;DHT22;3694;48.732;9.248;2023-04-07T13:10:30;8.20;99.90
7307;DHT22;3694;48.732;9.248;2023-04-07T13:12:56;8.40;99.90
7307;DHT22;3694;48.732;9.248;2023-04-07T13:15:22;8.50;99.90
7307;DHT22;3694;48.732;9.248;2023-04-07T13:17:47;8.60;99.90
7307;DHT22;3694;48.732;9.248;2023-04-07T13:20:13;8.80;99.90
7307;DHT22;3694;48.732;9.248;2023-04-07T13:22:38;9.00;99.90
7307;DHT22;3694;48.732;9.248;2023-04-07T13:25:04;9.20;99.90
7307;DHT22;3694;48.732;9.248;2023-04-07T13:27:30;9.30;99.90
7307;DHT22;3694;48.732;9.248;2023-04-07T13:29:56;9.50;99.90
7307;DHT22;3694;48.732;9.248;2023-04-07T13:32:21;9.60;99.90
7307;DHT22;3694;48.732;9.248;2023-04-07T13:34:47;9.70;99.90
7307;DHT22;3694;48.732;9.248;2023-04-07T13:37:13;9.90;99.90
7307;DHT22;3694;48.732;9.248;2023-04-07T13:39:39;10.00;99.90
7307;DHT22;3694;48.732;9.248;2023-04-07T13:42:05;10.10;99.90
7307;DHT22;3694;48.732;9.248;2023-04-07T13:44:32;10.10;99.90
7307;DHT22;3694;48.732;9.248;2023-04-07T13:46:58;10.10;99.90
7307;DHT22;3694;48.732;9.248;2023-04-07T13:49:24;10.20;99.90
7307;DHT22;3694;48.732;9.248;2023-04-07T13:51:49;10.00;99.90
7307;DHT22;3694;48.732;9.248;2023-04-07T13:54:15;10.10;99.90
7307;DHT22;3694;48.732;9.248;2023-04-07T13:56:42;10.10;99.90
7307;DHT22;3694;48.732;9.248;2023-04-07T13:59:08;10.10;99.90
7307;DHT22;3694;48.732;9.248;2023-04-07T14:01:33;10.30;99.90
7307;DHT22;3694;48.732;9.248;2023-04-07T14:04:00;10.30;99.90
7307;DHT22;3694;48.732;9.248;2023-04-07T14:06:27;10.40;99.90
7307;DHT22;3694;48.732;9.248;2023-04-07T14:08:52;10.40;99.90
7307;DHT22;3694;48.732;9.248;2023-04-07T14:11:18;10.40;99.90
7307;DHT22;3694;48.732;9.248;2023-04-07T14:13:45;10.60;99.90
7307;DHT22;3694;48.732;9.248;2023-04-07T14:16:11;10.80;99.90
7307;DHT22;3694;48.732;9.248;2023-04-07T14:18:37;10.90;99.90
7307;DHT22;3694;48.732;9.248;2023-04-07T14:21:03;11.10;99.90
7307;DHT22;3694;48.732;9.248;2023-04-07T14:23:28;11.20;99.90
7307;DHT22;3694;48.732;9.248;2023-04-07T14:25:56;11.30;99.90
7307;DHT22;3694;48.732;9.248;2023-04-07T14:28:22;11.50;99.20
7307;DHT22;3694;48.732;9.248;2023-04-07T14:30:48;11.40;99.50
7307;DHT22;3694;48.732;9.248;2023-04-07T14:33:13;11.70;98.60
7307;DHT22;3694;48.732;9.248;2023-04-07T14:35:41;11.90;97.90
7307;DHT22;3694;48.732;9.248;2023-04-07T14:38:07;12.00;96.90
7307;DHT22;3694;48.732;9.248;2023-04-07T14:40:32;12.10;96.80
7307;DHT22;3694;48.732;9.248;2023-04-07T14:42:58;12.00;97.00
7307;DHT22;3694;48.732;9.248;2023-04-07T14:45:23;12.20;96.10
7307;DHT22;3694;48.732;9.248;2023-04-07T14:47:49;12.20;95.70
7307;DHT22;3694;48.732;9.248;2023-04-07T14:50:15;12.30;95.40
7307;DHT22;3694;48.732;9.248;2023-04-07T14:52:41;12.30;98.50
7307;DHT22;3694;48.732;9.248;2023-04-07T14:55:06;12.30;95.80
7307;DHT22;3694;48.732;9.248;2023-04-07T14:57:32;12.40;95.30
7307;DHT22;3694;48.732;9.248;2023-04-07T14:59:57;12.40;98.50
7307;DHT22;3694;48.732;9.248;2023-04-07T15:02:23;12.50;94.70
7307;DHT22;3694;48.732;9.248;2023-04-07T15:04:49;12.40;97.00
7307;DHT22;3694;48.732;9.248;2023-04-07T15:07:14;12.40;94.90
7307;DHT22;3694;48.732;9.248;2023-04-07T15:09:39;12.40;94.00
7307;DHT22;3694;48.732;9.248;2023-04-07T15:12:05;12.50;94.30
7307;DHT22;3694;48.732;9.248;2023-04-07T15:14:31;12.30;95.40
7307;DHT22;3694;48.732;9.248;2023-04-07T15:16:56;12.40;94.80
7307;DHT22;3694;48.732;9.248;2023-04-07T15:19:21;12.30;94.80
7307;DHT22;3694;48.732;9.248;2023-04-07T15:21:47;12.30;97.10
7307;DHT22;3694;48.732;9.248;2023-04-07T15:24:12;12.20;96.50
7307;DHT22;3694;48.732;9.248;2023-04-07T15:26:38;12.20;97.20
7307;DHT22;3694;48.732;9.248;2023-04-07T15:29:03;12.20;98.30
7307;DHT22;3694;48.732;9.248;2023-04-07T15:31:29;12.20;94.40
7307;DHT22;3694;48.732;9.248;2023-04-07T15:33:55;12.00;95.60
7307;DHT22;3694;48.732;9.248;2023-04-07T15:36:20;11.90;94.60
7307;DHT22;3694;48.732;9.248;2023-04-07T15:38:46;11.70;94.70
7307;DHT22;3694;48.732;9.248;2023-04-07T15:41:14;11.70;94.50
7307;DHT22;3694;48.732;9.248;2023-04-07T15:43:40;11.60;95.20
7307;DHT22;3694;48.732;9.248;2023-04-07T15:46:06;11.80;95.10
7307;DHT22;3694;48.732;9.248;2023-04-07T15:48:31;11.70;96.10
7307;DHT22;3694;48.732;9.248;2023-04-07T15:50:57;11.50;95.80
7307;DHT22;3694;48.732;9.248;2023-04-07T15:53:22;11.50;94.70
7307;DHT22;3694;48.732;9.248;2023-04-07T15:55:48;11.50;96.60
7307;DHT22;3694;48.732;9.248;2023-04-07T15:58:13;11.50;96.20
7307;DHT22;3694;48.732;9.248;2023-04-07T16:00:39;11.50;95.60
7307;DHT22;3694;48.732;9.248;2023-04-07T16:03:05;11.50;95.10
7307;DHT22;3694;48.732;9.248;2023-04-07T16:05:31;11.40;94.80
7307;DHT22;3694;48.732;9.248;2023-04-07T16:07:56;11.30;95.40
7307;DHT22;3694;48.732;9.248;2023-04-07T16:10:22;11.30;95.40
7307;DHT22;3694;48.732;9.248;2023-04-07T16:12:48;11.30;95.10
7307;DHT22;3694;48.732;9.248;2023-04-07T16:15:14;11.30;95.10
7307;DHT22;3694;48.732;9.248;2023-04-07T16:17:42;11.20;95.60
7307;DHT22;3694;48.732;9.248;2023-04-07T16:20:08;11.30;95.60
7307;DHT22;3694;48.732;9.248;2023-04-07T16:22:46;11.20;96.00
7307;DHT22;3694;48.732;9.248;2023-04-07T16:25:14;11.10;95.80